Time;durP1;ratioP1;P1;durP2;ratioP2;P2;SDS_P1;SDS_P2;PMS_P1;PMS_P2;Temp;Humidity;BMP_temperature;BMP_pressure;BME280_temperature;BME280_humidity;BME280_pressure;Samples;Min_cycle;Max_cycle;Signal;HPM_P1;HPM_P2
2022/08/05 00:01:46;;;;;;;;;5.00;5.00;;;;;;;;5097734;27;45492;-76
2022/08/05 00:04:11;;;;;;;;;7.33;5.00;;;;;;;;5100094;27;46144;-77
2022/08/05 00:06:36;;;;;;;;;7.67;6.00;;;;;;;;5100750;27;45355;-75
2022/08/05 00:09:02;;;;;;;;;11.00;5.33;;;;;;;;5101114;27;45234;-77
2022/08/05 00:11:27;;;;;;;;;6.67;5.00;;;;;;;;5101171;27;45352;-77
2022/08/05 00:13:53;;;;;;;;;7.33;6.00;;;;;;;;5100594;27;45579;-77
2022/08/05 00:16:19;;;;;;;;;6.00;6.00;;;;;;;;5100884;27;45296;-77
2022/08/05 00:18:46;;;;;;;;;6.67;5.00;;;;;;;;5100797;27;45381;-77
2022/08/05 00:21:11;;;;;;;;;6.67;6.67;;;;;;;;5100801;27;45336;-77
2022/08/05 00:23:37;;;;;;;;;5.67;5.67;;;;;;;;5100434;27;46325;-77
2022/08/05 00:26:02;;;;;;;;;7.67;5.67;;;;;;;;5100480;27;45238;-76
2022/08/05 00:28:27;;;;;;;;;5.67;5.67;;;;;;;;5100785;27;45362;-77
2022/08/05 00:30:53;;;;;;;;;8.33;5.33;;;;;;;;5100814;27;45586;-77
2022/08/05 00:33:18;;;;;;;;;6.33;6.33;;;;;;;;5100434;27;47270;-77
2022/08/05 00:35:43;;;;;;;;;6.00;4.33;;;;;;;;5100459;27;45443;-76
2022/08/05 00:38:09;;;;;;;;;4.00;4.00;;;;;;;;5100639;27;45240;-77
2022/08/05 00:40:44;;;;;;;;;9.00;6.00;;;;;;;;5100828;27;45456;-76
2022/08/05 00:43:09;;;;;;;;;8.00;6.00;;;;;;;;5100178;27;47438;-76
2022/08/05 00:45:35;;;;;;;;;6.67;6.00;;;;;;;;5100344;27;45447;-77
2022/08/05 00:48:00;;;;;;;;;4.33;4.00;;;;;;;;5100367;27;45423;-75
2022/08/05 00:50:25;;;;;;;;;4.67;4.67;;;;;;;;5100410;27;45364;-77
2022/08/05 00:52:50;;;;;;;;;4.67;4.00;;;;;;;;5100097;27;46299;-77
2022/08/05 00:55:16;;;;;;;;;4.33;4.33;;;;;;;;5100114;27;45353;-76
2022/08/05 00:57:41;;;;;;;;;5.33;4.67;;;;;;;;5100314;27;45423;-76
2022/08/05 01:00:07;;;;;;;;;5.00;3.67;;;;;;;;5100351;27;45258;-77
2022/08/05 01:02:32;;;;;;;;;5.67;4.67;;;;;;;;5099968;27;45387;-77
2022/08/05 01:04:57;;;;;;;;;5.00;4.00;;;;;;;;5081358;27;45804;-77
2022/08/05 01:07:23;;;;;;;;;5.00;3.00;;;;;;;;5100202;27;45299;-76
2022/08/05 01:09:48;;;;;;;;;7.00;4.00;;;;;;;;5100271;27;45342;-77
2022/08/05 01:12:16;;;;;;;;;4.67;4.67;;;;;;;;5099959;27;46336;-77
2022/08/05 01:14:47;;;;;;;;;5.67;5.00;;;;;;;;5099663;27;45254;-77
2022/08/05 01:17:15;;;;;;;;;5.67;4.33;;;;;;;;5099732;27;45449;-76
2022/08/05 01:19:46;;;;;;;;;4.00;4.00;;;;;;;;5100190;27;45598;-77
2022/08/05 01:22:35;;;;;;;;;5.00;5.00;;;;;;;;5099453;27;45435;-77
2022/08/05 01:25:18;;;;;;;;;6.33;5.00;;;;;;;;5036265;28;45380;-77
2022/08/05 01:27:44;;;;;;;;;5.00;5.00;;;;;;;;5036791;28;45354;-77
2022/08/05 01:30:10;;;;;;;;;4.67;4.67;;;;;;;;5037025;28;45351;-77
2022/08/05 01:32:39;;;;;;;;;4.00;4.00;;;;;;;;5036514;28;47342;-77
2022/08/05 01:35:30;;;;;;;;;7.67;6.00;;;;;;;;5036363;28;45283;-77
2022/08/05 01:37:56;;;;;;;;;4.00;4.00;;;;;;;;5033321;28;45544;-77
2022/08/05 01:40:27;;;;;;;;;6.00;3.67;;;;;;;;5036862;28;45468;-78
2022/08/05 01:42:53;;;;;;;;;5.33;5.33;;;;;;;;5035440;28;45619;-77
2022/08/05 01:45:19;;;;;;;;;6.00;3.67;;;;;;;;5036366;28;45424;-77
2022/08/05 01:47:45;;;;;;;;;6.33;4.67;;;;;;;;5036388;28;45353;-77
2022/08/05 01:50:17;;;;;;;;;7.67;6.33;;;;;;;;5036442;28;45448;-77
2022/08/05 01:52:44;;;;;;;;;8.00;5.00;;;;;;;;5036097;28;46984;-77
2022/08/05 01:55:12;;;;;;;;;6.00;5.00;;;;;;;;5036391;28;45510;-76
2022/08/05 01:57:40;;;;;;;;;5.33;5.33;;;;;;;;5036381;28;45357;-77
2022/08/05 02:00:06;;;;;;;;;5.67;5.00;;;;;;;;5036385;28;45450;-77
2022/08/05 02:02:32;;;;;;;;;5.00;5.00;;;;;;;;5080386;27;47252;-77
2022/08/05 02:04:59;;;;;;;;;6.00;5.67;;;;;;;;5098593;27;45349;-76
2022/08/05 02:07:25;;;;;;;;;6.33;6.33;;;;;;;;5099096;27;45413;-77
2022/08/05 02:09:50;;;;;;;;;6.00;5.33;;;;;;;;5099186;27;45521;-77
2022/08/05 02:12:20;;;;;;;;;7.33;5.67;;;;;;;;5098505;27;46636;-75
2022/08/05 02:14:52;;;;;;;;;6.67;5.33;;;;;;;;5098920;27;45473;-77
2022/08/05 02:17:27;;;;;;;;;6.00;6.00;;;;;;;;5099029;27;45303;-77
2022/08/05 02:19:57;;;;;;;;;7.00;5.00;;;;;;;;5098845;27;45156;-77
2022/08/05 02:22:28;;;;;;;;;6.00;5.00;;;;;;;;5098769;27;45257;-76
2022/08/05 02:25:20;;;;;;;;;4.67;4.67;;;;;;;;5098553;27;45360;-76
2022/08/05 02:27:47;;;;;;;;;7.33;6.00;;;;;;;;5035414;28;45495;-77
2022/08/05 02:30:14;;;;;;;;;4.00;2.67;;;;;;;;5035918;28;45577;-77
2022/08/05 02:32:40;;;;;;;;;7.00;6.00;;;;;;;;5035658;28;46168;-77
2022/08/05 02:35:10;;;;;;;;;5.67;3.67;;;;;;;;5035566;28;45319;-76
2022/08/05 02:37:35;;;;;;;;;11.00;6.33;;;;;;;;5035430;28;45541;-77
2022/08/05 02:40:02;;;;;;;;;7.00;4.33;;;;;;;;5035968;28;45437;-77
2022/08/05 02:42:27;;;;;;;;;7.00;5.33;;;;;;;;5035432;28;47204;-77
2022/08/05 02:44:53;;;;;;;;;7.00;5.67;;;;;;;;5035253;28;45358;-77
2022/08/05 02:47:20;;;;;;;;;5.00;5.00;;;;;;;;5035626;28;45219;-77
2022/08/05 02:49:45;;;;;;;;;6.33;6.00;;;;;;;;5035815;28;45431;-76
2022/08/05 02:52:14;;;;;;;;;10.00;7.00;;;;;;;;5035120;28;46407;-77
2022/08/05 02:54:41;;;;;;;;;7.00;4.00;;;;;;;;5035305;28;45452;-77
2022/08/05 02:57:09;;;;;;;;;10.00;7.33;;;;;;;;5035491;28;45535;-77
2022/08/05 02:59:34;;;;;;;;;6.00;5.33;;;;;;;;5035532;28;45307;-77
2022/08/05 03:02:00;;;;;;;;;10.67;7.00;;;;;;;;5035106;28;46147;-77
2022/08/05 03:04:26;;;;;;;;;9.00;6.33;;;;;;;;5063563;27;45274;-77
2022/08/05 03:06:52;;;;;;;;;4.00;4.00;;;;;;;;5098040;27;45467;-77
2022/08/05 03:09:18;;;;;;;;;8.67;6.00;;;;;;;;5098400;27;45367;-77
2022/08/05 03:11:43;;;;;;;;;6.00;6.00;;;;;;;;5098162;27;45667;-77
2022/08/05 03:14:09;;;;;;;;;5.67;4.67;;;;;;;;5098042;27;45284;-76
2022/08/05 03:16:34;;;;;;;;;7.67;6.67;;;;;;;;5098331;27;45372;-77
2022/08/05 03:19:00;;;;;;;;;5.00;5.00;;;;;;;;5098223;27;45397;-77
2022/08/05 03:21:25;;;;;;;;;4.00;4.00;;;;;;;;5079379;27;46370;-77
2022/08/05 03:23:51;;;;;;;;;6.67;6.67;;;;;;;;5097716;27;45163;-77
2022/08/05 03:26:16;;;;;;;;;6.00;5.00;;;;;;;;5097970;27;45246;-77
2022/08/05 03:28:41;;;;;;;;;8.00;5.33;;;;;;;;5098081;27;45352;-77
2022/08/05 03:31:07;;;;;;;;;5.33;5.33;;;;;;;;5097807;27;45511;-77
2022/08/05 03:33:33;;;;;;;;;5.00;5.00;;;;;;;;5097653;27;45552;-77
2022/08/05 03:35:58;;;;;;;;;7.00;6.00;;;;;;;;5097815;27;45394;-77
2022/08/05 03:38:24;;;;;;;;;6.67;6.33;;;;;;;;5099265;27;45434;-77
2022/08/05 03:40:51;;;;;;;;;7.00;6.00;;;;;;;;5101241;27;45441;-77
2022/08/05 03:43:17;;;;;;;;;7.33;7.33;;;;;;;;5101354;27;45377;-77
2022/08/05 03:45:43;;;;;;;;;9.00;7.00;;;;;;;;5101252;27;46065;-77
2022/08/05 03:48:08;;;;;;;;;10.00;8.67;;;;;;;;5101392;27;45403;-76
2022/08/05 03:50:55;;;;;;;;;8.33;7.67;;;;;;;;5101285;27;46529;-75
2022/08/05 03:53:26;;;;;;;;;11.33;9.33;;;;;;;;5100910;27;45229;-77
2022/08/05 03:56:18;;;;;;;;;8.00;5.00;;;;;;;;5082849;27;45503;-77
2022/08/05 03:58:45;;;;;;;;;13.00;13.00;;;;;;;;5097998;27;45290;-77
2022/08/05 04:01:11;;;;;;;;;6.33;6.33;;;;;;;;5100768;27;45494;-77
2022/08/05 04:03:38;;;;;;;;;11.00;8.00;;;;;;;;5100881;27;45353;-77
2022/08/05 04:06:04;;;;;;;;;11.67;7.00;;;;;;;;5100771;27;45365;-77
2022/08/05 04:08:30;;;;;;;;;7.00;5.67;;;;;;;;5101066;27;45439;-77
2022/08/05 04:10:56;;;;;;;;;7.33;7.00;;;;;;;;5100582;27;45633;-77
2022/08/05 04:13:22;;;;;;;;;7.00;7.00;;;;;;;;5100673;27;45451;-77
2022/08/05 04:15:48;;;;;;;;;7.67;7.33;;;;;;;;5100760;27;45661;-76
2022/08/05 04:18:14;;;;;;;;;11.33;7.67;;;;;;;;5101072;27;45424;-76
2022/08/05 04:20:39;;;;;;;;;8.67;7.00;;;;;;;;5100605;27;45393;-77
2022/08/05 04:23:04;;;;;;;;;8.00;7.33;;;;;;;;5100678;27;45340;-77
2022/08/05 04:25:29;;;;;;;;;9.33;8.00;;;;;;;;5100810;27;45424;-77
2022/08/05 04:27:55;;;;;;;;;8.67;7.00;;;;;;;;5100899;27;45414;-77
2022/08/05 04:30:20;;;;;;;;;8.00;7.67;;;;;;;;5100498;27;47154;-77
2022/08/05 04:32:45;;;;;;;;;11.00;8.33;;;;;;;;5100532;27;45373;-77
2022/08/05 04:35:11;;;;;;;;;8.67;7.33;;;;;;;;5100499;27;45446;-77
2022/08/05 04:37:36;;;;;;;;;8.33;7.33;;;;;;;;5100779;27;45458;-77
2022/08/05 04:40:01;;;;;;;;;10.67;8.00;;;;;;;;5100326;27;46563;-77
2022/08/05 04:42:26;;;;;;;;;5.67;5.67;;;;;;;;5100496;27;45415;-77
2022/08/05 04:44:51;;;;;;;;;8.00;8.00;;;;;;;;5100590;27;45524;-77
2022/08/05 04:47:17;;;;;;;;;6.00;6.00;;;;;;;;5100709;27;45363;-77
2022/08/05 04:49:42;;;;;;;;;9.00;8.00;;;;;;;;5099862;27;46869;-77
2022/08/05 04:52:07;;;;;;;;;12.00;8.67;;;;;;;;5100319;27;45299;-77
2022/08/05 04:54:32;;;;;;;;;10.67;8.67;;;;;;;;5100242;27;45371;-77
2022/08/05 04:56:57;;;;;;;;;9.33;9.33;;;;;;;;5100546;27;45242;-77
2022/08/05 04:59:23;;;;;;;;;7.33;6.33;;;;;;;;5100161;27;45444;-77
2022/08/05 05:01:48;;;;;;;;;7.33;7.33;;;;;;;;5100028;27;45424;-77
2022/08/05 05:04:14;;;;;;;;;8.00;7.00;;;;;;;;5100341;27;45357;-77
2022/08/05 05:06:39;;;;;;;;;8.33;8.00;;;;;;;;5100088;27;45792;-77
2022/08/05 05:09:04;;;;;;;;;7.67;7.00;;;;;;;;5081407;27;47348;-77
2022/08/05 05:11:29;;;;;;;;;8.33;8.33;;;;;;;;5099987;27;45422;-77
2022/08/05 05:13:55;;;;;;;;;8.67;8.67;;;;;;;;5100008;27;45246;-77
2022/08/05 05:16:20;;;;;;;;;7.67;6.00;;;;;;;;5100063;27;45302;-77
2022/08/05 05:18:45;;;;;;;;;8.67;7.33;;;;;;;;5100069;27;46203;-76
2022/08/05 05:21:10;;;;;;;;;6.00;5.33;;;;;;;;5099914;27;45257;-77
2022/08/05 05:23:35;;;;;;;;;9.00;9.00;;;;;;;;5100086;27;45229;-77
2022/08/05 05:26:01;;;;;;;;;11.33;9.00;;;;;;;;5100097;27;45485;-77
2022/08/05 05:28:26;;;;;;;;;8.00;8.00;;;;;;;;5099604;27;46087;-77
2022/08/05 05:30:51;;;;;;;;;9.33;8.00;;;;;;;;5099786;27;45297;-77
2022/08/05 05:33:16;;;;;;;;;10.00;8.67;;;;;;;;5099639;27;45175;-76
2022/08/05 05:35:43;;;;;;;;;8.00;8.00;;;;;;;;5099707;27;45375;-77
2022/08/05 05:38:08;;;;;;;;;11.67;7.00;;;;;;;;5099305;27;46543;-77
2022/08/05 05:40:33;;;;;;;;;11.00;8.00;;;;;;;;5099359;27;45210;-77
2022/08/05 05:42:59;;;;;;;;;10.00;7.00;;;;;;;;5099600;27;45284;-77
2022/08/05 05:45:24;;;;;;;;;8.67;7.00;;;;;;;;5099602;27;45372;-77
2022/08/05 05:47:50;;;;;;;;;9.33;8.00;;;;;;;;5099374;27;45443;-75
2022/08/05 05:50:16;;;;;;;;;7.33;6.00;;;;;;;;5099354;27;45435;-76
2022/08/05 05:52:42;;;;;;;;;13.33;7.00;;;;;;;;5099344;27;45356;-77
2022/08/05 05:55:08;;;;;;;;;5.33;5.33;;;;;;;;5099559;27;45246;-77
2022/08/05 05:57:34;;;;;;;;;10.67;7.00;;;;;;;;5099015;27;46445;-77
2022/08/05 05:59:59;;;;;;;;;8.00;8.00;;;;;;;;5098900;27;45375;-77
2022/08/05 06:02:25;;;;;;;;;7.00;6.00;;;;;;;;5098778;27;45262;-77
2022/08/05 06:04:50;;;;;;;;;5.67;5.67;;;;;;;;5099190;27;45304;-77
2022/08/05 06:07:15;;;;;;;;;7.33;7.33;;;;;;;;5099189;27;45335;-77
2022/08/05 06:09:40;;;;;;;;;7.67;6.33;;;;;;;;5098812;27;45245;-77
2022/08/05 06:12:06;;;;;;;;;8.00;7.00;;;;;;;;5099290;27;45258;-74
2022/08/05 06:14:31;;;;;;;;;4.00;4.00;;;;;;;;5099162;27;45312;-77
2022/08/05 06:16:57;;;;;;;;;5.00;5.00;;;;;;;;5098814;27;45426;-77
2022/08/05 06:19:22;;;;;;;;;8.00;7.00;;;;;;;;5098745;27;45459;-77
2022/08/05 06:21:47;;;;;;;;;6.33;6.33;;;;;;;;5098886;27;45210;-77
2022/08/05 06:24:13;;;;;;;;;9.00;9.00;;;;;;;;5098963;27;45380;-77
2022/08/05 06:26:41;;;;;;;;;11.33;8.00;;;;;;;;5098710;27;46383;-77
2022/08/05 06:29:06;;;;;;;;;8.00;8.00;;;;;;;;5098633;27;45394;-77
2022/08/05 06:31:32;;;;;;;;;9.33;9.00;;;;;;;;5098695;27;45380;-77
2022/08/05 06:33:57;;;;;;;;;7.00;6.33;;;;;;;;5098931;27;45446;-77
2022/08/05 06:36:22;;;;;;;;;10.33;7.67;;;;;;;;5098604;27;46086;-76
2022/08/05 06:38:52;;;;;;;;;10.00;9.00;;;;;;;;5098522;27;45253;-77
2022/08/05 06:41:17;;;;;;;;;5.67;5.67;;;;;;;;5098679;27;45185;-77
2022/08/05 06:43:42;;;;;;;;;9.33;8.00;;;;;;;;5098664;27;45239;-77
2022/08/05 06:46:08;;;;;;;;;5.00;5.00;;;;;;;;5098411;27;45571;-77
2022/08/05 06:48:33;;;;;;;;;9.00;9.00;;;;;;;;5098581;27;45525;-77
2022/08/05 06:50:59;;;;;;;;;10.00;7.00;;;;;;;;5098633;27;45479;-77
2022/08/05 06:53:24;;;;;;;;;11.00;8.33;;;;;;;;5098315;27;45312;-76
2022/08/05 06:55:49;;;;;;;;;10.00;8.00;;;;;;;;5098459;27;45204;-77
2022/08/05 06:58:14;;;;;;;;;11.33;8.00;;;;;;;;5098161;27;45165;-77
2022/08/05 07:00:40;;;;;;;;;10.33;8.00;;;;;;;;5098546;27;45215;-77
2022/08/05 07:03:05;;;;;;;;;8.33;8.33;;;;;;;;5098625;27;45491;-77
2022/08/05 07:05:30;;;;;;;;;11.33;10.00;;;;;;;;5097965;27;46373;-76
2022/08/05 07:07:55;;;;;;;;;8.33;7.00;;;;;;;;5098192;27;45389;-76
2022/08/05 07:10:20;;;;;;;;;11.00;8.33;;;;;;;;5098027;27;45337;-77
2022/08/05 07:18:13;;;;;;;;;6.67;6.67;;;;;;;;5104962;27;45264;-75
2022/08/05 07:20:39;;;;;;;;;8.67;8.33;;;;;;;;5105039;27;45313;-75
2022/08/05 07:23:04;;;;;;;;;11.33;7.33;;;;;;;;5105186;27;45418;-76
2022/08/05 07:25:29;;;;;;;;;10.33;8.00;;;;;;;;5104587;27;46513;-76
2022/08/05 07:27:55;;;;;;;;;10.33;9.33;;;;;;;;5104968;27;45429;-76
2022/08/05 07:30:20;;;;;;;;;7.33;6.00;;;;;;;;5086384;27;45459;-76
2022/08/05 07:32:45;;;;;;;;;9.00;7.33;;;;;;;;5104926;27;45487;-73
2022/08/05 07:35:11;;;;;;;;;11.33;8.33;;;;;;;;5104670;27;45387;-76
2022/08/05 07:37:37;;;;;;;;;8.67;5.33;;;;;;;;5104543;27;45446;-74
2022/08/05 07:40:03;;;;;;;;;11.00;8.00;;;;;;;;5104685;27;45490;-76
2022/08/05 07:42:28;;;;;;;;;7.67;7.33;;;;;;;;5104717;27;45525;-74
2022/08/05 07:44:54;;;;;;;;;9.67;6.67;;;;;;;;5104579;27;45491;-75
2022/08/05 07:47:19;;;;;;;;;9.00;5.00;;;;;;;;5104461;27;45483;-76
2022/08/05 07:49:45;;;;;;;;;5.67;5.67;;;;;;;;5104521;27;45423;-76
2022/08/05 07:52:10;;;;;;;;;5.00;5.00;;;;;;;;5104946;27;45310;-75
2022/08/05 07:54:35;;;;;;;;;8.00;7.00;;;;;;;;5104165;27;46321;-75
2022/08/05 07:57:01;;;;;;;;;5.00;3.33;;;;;;;;5104412;27;45353;-76
2022/08/05 07:59:26;;;;;;;;;5.00;5.00;;;;;;;;5104489;27;45415;-76
2022/08/05 08:01:51;;;;;;;;;6.33;6.00;;;;;;;;5104663;27;45208;-76
2022/08/05 08:04:17;;;;;;;;;5.67;4.67;;;;;;;;5104379;27;45476;-74
2022/08/05 08:06:42;;;;;;;;;6.00;4.00;;;;;;;;5104051;27;45480;-75
2022/08/05 08:09:07;;;;;;;;;4.00;4.00;;;;;;;;5085916;27;45320;-74
2022/08/05 08:11:32;;;;;;;;;4.00;4.00;;;;;;;;5104572;27;45448;-77
2022/08/05 08:13:58;;;;;;;;;3.67;3.67;;;;;;;;5104081;27;45433;-75
2022/08/05 08:16:23;;;;;;;;;2.33;2.33;;;;;;;;5085770;27;45336;-74
2022/08/05 08:18:48;;;;;;;;;3.33;3.33;;;;;;;;5104173;27;45380;-75
2022/08/05 08:21:13;;;;;;;;;3.00;3.00;;;;;;;;5104450;27;45374;-77
2022/08/05 08:23:39;;;;;;;;;2.00;2.00;;;;;;;;5102274;27;45578;-76
2022/08/05 08:26:04;;;;;;;;;3.67;2.33;;;;;;;;5100597;27;45174;-76
2022/08/05 08:28:29;;;;;;;;;3.00;3.00;;;;;;;;5100867;27;45272;-76
2022/08/05 08:30:54;;;;;;;;;4.00;3.67;;;;;;;;5100887;27;45235;-76
2022/08/05 08:33:20;;;;;;;;;4.00;3.00;;;;;;;;5100421;27;45481;-74
2022/08/05 08:35:45;;;;;;;;;3.00;3.00;;;;;;;;5100499;27;45284;-75
2022/08/05 08:38:11;;;;;;;;;4.00;3.00;;;;;;;;5100650;27;45214;-77
2022/08/05 08:40:37;;;;;;;;;2.00;1.33;;;;;;;;5100671;27;45342;-76
2022/08/05 08:43:03;;;;;;;;;2.00;1.67;;;;;;;;5081891;27;47253;-76
2022/08/05 08:45:28;;;;;;;;;1.33;1.33;;;;;;;;5100336;27;45486;-76
2022/08/05 08:47:54;;;;;;;;;1.00;1.00;;;;;;;;5100536;27;45300;-77
2022/08/05 08:50:20;;;;;;;;;1.00;1.00;;;;;;;;5100611;27;45385;-76
2022/08/05 08:52:48;;;;;;;;;1.00;1.00;;;;;;;;5100231;27;45602;-76
2022/08/05 08:55:14;;;;;;;;;5.33;3.33;;;;;;;;5081777;27;45673;-75
2022/08/05 08:57:39;;;;;;;;;2.00;2.00;;;;;;;;5100211;27;45418;-77
2022/08/05 09:00:07;;;;;;;;;3.00;3.00;;;;;;;;5100289;27;45389;-76
2022/08/05 09:02:32;;;;;;;;;3.67;2.00;;;;;;;;5100008;27;46950;-77
2022/08/05 09:04:57;;;;;;;;;2.00;2.00;;;;;;;;5100139;27;45434;-77
2022/08/05 09:07:22;;;;;;;;;2.00;2.00;;;;;;;;5100251;27;45359;-76
2022/08/05 09:09:48;;;;;;;;;2.67;2.67;;;;;;;;5099951;27;45417;-75
2022/08/05 09:12:13;;;;;;;;;6.00;4.33;;;;;;;;5099736;27;46171;-74
2022/08/05 09:14:38;;;;;;;;;1.00;1.00;;;;;;;;5099729;27;45245;-76
2022/08/05 09:17:05;;;;;;;;;2.00;2.00;;;;;;;;5100097;27;45556;-74
2022/08/05 09:19:31;;;;;;;;;1.00;1.00;;;;;;;;5100209;27;45297;-75
2022/08/05 09:21:57;;;;;;;;;3.33;2.00;;;;;;;;5099613;27;47082;-75
2022/08/05 09:24:22;;;;;;;;;1.67;1.00;;;;;;;;5099539;27;45317;-76
2022/08/05 09:26:51;;;;;;;;;1.00;1.00;;;;;;;;5099985;27;45156;-77
2022/08/05 09:29:17;;;;;;;;;2.00;2.00;;;;;;;;5099920;27;45384;-75
2022/08/05 09:31:45;;;;;;;;;1.00;1.00;;;;;;;;5099386;27;46392;-75
2022/08/05 09:34:10;;;;;;;;;1.67;1.67;;;;;;;;5099510;27;45317;-74
2022/08/05 09:36:39;;;;;;;;;2.00;2.00;;;;;;;;5098324;27;45320;-76
2022/08/05 09:39:06;;;;;;;;;4.00;1.00;;;;;;;;5099902;27;45523;-76
2022/08/05 09:41:31;;;;;;;;;0.00;0.00;;;;;;;;5099425;27;45690;-75
2022/08/05 09:43:56;;;;;;;;;5.33;5.33;;;;;;;;5099504;27;45355;-75
2022/08/05 09:46:24;;;;;;;;;2.67;1.33;;;;;;;;5099480;27;45320;-76
2022/08/05 09:48:51;;;;;;;;;1.00;1.00;;;;;;;;5099593;27;45467;-78
2022/08/05 09:51:16;;;;;;;;;2.67;2.00;;;;;;;;5099103;27;46459;-74
2022/08/05 09:53:48;;;;;;;;;1.00;1.00;;;;;;;;5099003;27;45316;-76
2022/08/05 09:56:22;;;;;;;;;0.67;0.67;;;;;;;;5099381;27;45398;-75
2022/08/05 09:58:56;;;;;;;;;1.67;1.67;;;;;;;;5099319;27;45536;-74
2022/08/05 10:01:21;;;;;;;;;1.00;1.00;;;;;;;;5098205;27;45770;-75
2022/08/05 10:03:58;;;;;;;;;2.67;1.33;;;;;;;;5099100;27;45348;-76
2022/08/05 10:06:24;;;;;;;;;2.33;2.33;;;;;;;;5098925;27;45572;-75
2022/08/05 10:08:49;;;;;;;;;2.67;1.00;;;;;;;;5099203;27;45443;-76
2022/08/05 10:11:15;;;;;;;;;3.33;1.00;;;;;;;;5099146;27;46432;-75
2022/08/05 10:13:40;;;;;;;;;1.00;1.00;;;;;;;;5098654;27;45467;-74
2022/08/05 10:16:25;;;;;;;;;2.00;1.00;;;;;;;;5098998;27;45317;-75
2022/08/05 10:18:51;;;;;;;;;4.00;2.00;;;;;;;;5098961;27;45411;-75
2022/08/05 10:21:16;;;;;;;;;3.00;1.33;;;;;;;;5098541;27;46197;-75
2022/08/05 10:23:43;;;;;;;;;1.00;1.00;;;;;;;;5098982;27;45290;-76
2022/08/05 10:26:11;;;;;;;;;2.00;1.00;;;;;;;;5098861;27;45253;-75
2022/08/05 10:28:36;;;;;;;;;1.00;1.00;;;;;;;;5099064;27;45380;-76
2022/08/05 10:31:02;;;;;;;;;0.33;0.00;;;;;;;;5098747;27;45339;-76
2022/08/05 10:33:29;;;;;;;;;2.00;1.67;;;;;;;;5098764;27;45316;-76
2022/08/05 10:35:55;;;;;;;;;0.67;0.67;;;;;;;;5098801;27;45273;-76
2022/08/05 10:38:22;;;;;;;;;1.00;1.00;;;;;;;;5099014;27;45267;-76
2022/08/05 10:40:53;;;;;;;;;2.00;2.00;;;;;;;;5098376;27;46254;-75
2022/08/05 10:43:18;;;;;;;;;0.33;0.33;;;;;;;;5098534;27;45259;-76
2022/08/05 10:45:54;;;;;;;;;2.00;2.00;;;;;;;;5098673;27;45344;-74
2022/08/05 10:48:28;;;;;;;;;2.33;1.00;;;;;;;;5098202;27;45352;-75
2022/08/05 10:51:01;;;;;;;;;1.00;1.00;;;;;;;;5098187;27;46138;-74
2022/08/05 10:53:41;;;;;;;;;1.00;1.00;;;;;;;;5098166;27;45261;-75
2022/08/05 10:56:06;;;;;;;;;1.00;1.00;;;;;;;;5098467;27;45350;-76
2022/08/05 10:58:32;;;;;;;;;1.00;1.00;;;;;;;;5098589;27;45480;-76
2022/08/05 11:00:57;;;;;;;;;2.00;0.00;;;;;;;;5097243;27;45485;-76
2022/08/05 11:03:23;;;;;;;;;1.00;1.00;;;;;;;;5098019;27;45331;-76
2022/08/05 11:06:07;;;;;;;;;2.33;1.00;;;;;;;;5098134;27;45198;-74
2022/08/05 11:08:32;;;;;;;;;1.00;1.00;;;;;;;;5098053;27;45600;-76
2022/08/05 11:11:20;;;;;;;;;1.00;1.00;;;;;;;;5097962;27;45182;-76
2022/08/05 11:13:48;;;;;;;;;0.00;0.00;;;;;;;;5097821;27;45328;-76
2022/08/05 11:16:20;;;;;;;;;1.00;1.00;;;;;;;;5098313;27;45466;-75
2022/08/05 11:18:45;;;;;;;;;1.00;1.00;;;;;;;;5098157;27;45409;-76
2022/08/05 11:21:29;;;;;;;;;1.67;1.67;;;;;;;;5098037;27;45236;-76
2022/08/05 11:23:54;;;;;;;;;1.00;1.00;;;;;;;;5097799;27;45248;-74
2022/08/05 11:26:21;;;;;;;;;7.00;6.00;;;;;;;;5097831;27;45471;-74
2022/08/05 11:28:47;;;;;;;;;2.00;1.00;;;;;;;;5098285;27;45256;-74
2022/08/05 11:31:12;;;;;;;;;1.00;1.00;;;;;;;;5097661;27;46384;-73
2022/08/05 11:33:38;;;;;;;;;1.33;1.33;;;;;;;;5097732;27;45270;-73
2022/08/05 11:36:03;;;;;;;;;1.00;0.00;;;;;;;;5098121;27;45437;-74
2022/08/05 11:38:37;;;;;;;;;1.00;1.00;;;;;;;;5098055;27;45397;-74
2022/08/05 11:41:06;;;;;;;;;1.33;0.00;;;;;;;;5097739;27;45703;-75
2022/08/05 11:43:32;;;;;;;;;0.67;0.67;;;;;;;;5097620;27;45244;-75
2022/08/05 11:45:58;;;;;;;;;1.33;1.33;;;;;;;;5097563;27;45385;-76
2022/08/05 11:48:24;;;;;;;;;1.00;1.00;;;;;;;;5097835;27;45337;-75
2022/08/05 11:50:50;;;;;;;;;0.00;0.00;;;;;;;;5097586;27;46523;-75
2022/08/05 11:53:16;;;;;;;;;1.00;1.00;;;;;;;;5097429;27;45278;-74
2022/08/05 11:55:57;;;;;;;;;1.67;1.33;;;;;;;;5097802;27;45306;-75
2022/08/05 11:58:32;;;;;;;;;1.00;1.00;;;;;;;;5098091;27;45321;-75
2022/08/05 12:01:08;;;;;;;;;1.00;1.00;;;;;;;;5100804;27;46298;-74
2022/08/05 12:03:59;;;;;;;;;0.33;0.33;;;;;;;;5100855;27;45231;-74
2022/08/05 12:06:29;;;;;;;;;2.00;2.00;;;;;;;;5097460;27;45437;-74
2022/08/05 12:08:55;;;;;;;;;3.33;0.33;;;;;;;;5101509;27;45228;-76
2022/08/05 12:11:21;;;;;;;;;7.00;7.00;;;;;;;;5100565;27;46183;-76
2022/08/05 12:13:57;;;;;;;;;1.00;1.00;;;;;;;;5099874;27;45974;-75
2022/08/05 12:16:24;;;;;;;;;1.00;1.00;;;;;;;;5100931;27;45422;-75
2022/08/05 12:18:49;;;;;;;;;1.00;1.00;;;;;;;;5101035;27;45308;-75
2022/08/05 12:21:18;;;;;;;;;0.67;0.67;;;;;;;;5100438;27;45437;-74
2022/08/05 12:23:53;;;;;;;;;1.67;1.67;;;;;;;;5100751;27;45234;-75
2022/08/05 12:26:18;;;;;;;;;0.00;0.00;;;;;;;;5100763;27;45449;-74
2022/08/05 12:28:44;;;;;;;;;1.00;1.00;;;;;;;;5101078;27;45211;-74
2022/08/05 12:31:09;;;;;;;;;1.00;1.00;;;;;;;;5100725;27;45285;-74
2022/08/05 12:33:34;;;;;;;;;2.67;0.00;;;;;;;;5100589;27;45478;-76
2022/08/05 12:36:00;;;;;;;;;0.00;0.00;;;;;;;;5100816;27;45438;-75
2022/08/05 12:38:25;;;;;;;;;3.00;1.00;;;;;;;;5082444;27;45232;-75
2022/08/05 12:40:52;;;;;;;;;1.00;1.00;;;;;;;;5100218;27;46535;-75
2022/08/05 12:43:18;;;;;;;;;1.67;1.67;;;;;;;;5100344;27;45326;-75
2022/08/05 12:45:53;;;;;;;;;2.67;1.00;;;;;;;;5100390;27;45330;-73
2022/08/05 12:48:18;;;;;;;;;1.00;1.00;;;;;;;;5100497;27;45469;-75
2022/08/05 12:50:43;;;;;;;;;52.25;43.25;;;;;;;;5100067;27;47478;-75
2022/08/05 12:53:14;;;;;;;;;4.00;2.67;;;;;;;;5100175;27;45296;-75
2022/08/05 12:55:39;;;;;;;;;1.67;1.67;;;;;;;;5100220;27;45415;-75
2022/08/05 12:58:05;;;;;;;;;0.00;0.00;;;;;;;;5100533;27;45454;-74
2022/08/05 13:00:31;;;;;;;;;0.00;0.00;;;;;;;;5100110;27;45582;-73
2022/08/05 13:02:57;;;;;;;;;1.00;1.00;;;;;;;;5100136;27;45417;-75
2022/08/05 13:05:23;;;;;;;;;1.00;1.00;;;;;;;;5099987;27;45802;-75
2022/08/05 13:07:48;;;;;;;;;1.33;1.00;;;;;;;;5100450;27;45340;-75
2022/08/05 13:10:14;;;;;;;;;1.00;1.00;;;;;;;;5099488;27;47284;-75
2022/08/05 13:12:41;;;;;;;;;1.00;1.00;;;;;;;;5099789;27;45370;-74
2022/08/05 13:15:08;;;;;;;;;2.00;1.00;;;;;;;;5100078;27;45496;-74
2022/08/05 13:17:34;;;;;;;;;0.00;0.00;;;;;;;;5099908;27;45401;-75
2022/08/05 13:20:01;;;;;;;;;2.33;2.00;;;;;;;;5099755;27;46129;-75
2022/08/05 13:22:27;;;;;;;;;4.00;1.00;;;;;;;;5099914;27;45224;-75
2022/08/05 13:24:52;;;;;;;;;3.00;1.00;;;;;;;;5099777;27;45303;-75
2022/08/05 13:27:28;;;;;;;;;1.00;1.00;;;;;;;;5100164;27;45370;-76
2022/08/05 13:29:54;;;;;;;;;1.67;1.67;;;;;;;;5099742;27;45692;-76
2022/08/05 13:32:19;;;;;;;;;1.33;1.33;;;;;;;;5099531;27;45273;-74
2022/08/05 13:34:45;;;;;;;;;2.00;1.33;;;;;;;;5099805;27;45315;-74
2022/08/05 13:37:10;;;;;;;;;1.33;1.33;;;;;;;;5099784;27;45410;-76
2022/08/05 13:39:35;;;;;;;;;2.33;1.00;;;;;;;;5099444;27;46353;-76
2022/08/05 13:42:01;;;;;;;;;3.33;2.00;;;;;;;;5099590;27;45347;-76
2022/08/05 13:44:26;;;;;;;;;1.00;1.00;;;;;;;;5099705;27;45282;-75
2022/08/05 13:46:51;;;;;;;;;2.00;2.00;;;;;;;;5099737;27;45472;-73
2022/08/05 13:49:16;;;;;;;;;1.00;1.00;;;;;;;;5099354;27;46447;-76
2022/08/05 13:51:41;;;;;;;;;2.00;0.00;;;;;;;;5099248;27;45471;-74
2022/08/05 13:54:07;;;;;;;;;1.00;1.00;;;;;;;;5099320;27;45291;-75
2022/08/05 13:56:32;;;;;;;;;2.00;2.00;;;;;;;;5099470;27;45435;-76
2022/08/05 13:58:58;;;;;;;;;0.67;0.67;;;;;;;;5099375;27;45411;-75
2022/08/05 14:01:23;;;;;;;;;1.67;1.67;;;;;;;;5099200;27;45226;-74
2022/08/05 14:05:09;;;;;;;;;3.33;1.00;;;;;;;;5099055;27;45405;-75
2022/08/05 14:06:33;;;;;;;;;0.67;0.67;;;;;;;;5099000;27;45352;-76
2022/08/05 14:08:59;;;;;;;;;1.00;1.00;;;;;;;;5098967;27;45914;-76
2022/08/05 14:11:24;;;;;;;;;0.00;0.00;;;;;;;;5099020;27;45329;-77
2022/08/05 14:13:49;;;;;;;;;1.00;1.00;;;;;;;;5080582;27;45322;-74
2022/08/05 14:16:15;;;;;;;;;1.00;1.00;;;;;;;;5099189;27;45460;-75
2022/08/05 14:18:40;;;;;;;;;3.00;2.00;;;;;;;;5099118;27;46239;-76
2022/08/05 14:21:05;;;;;;;;;1.00;1.00;;;;;;;;5098499;27;45390;-74
2022/08/05 14:23:30;;;;;;;;;1.00;1.00;;;;;;;;5098627;27;45281;-74
2022/08/05 14:25:55;;;;;;;;;3.00;0.00;;;;;;;;5098908;27;45328;-75
2022/08/05 14:28:21;;;;;;;;;0.00;0.00;;;;;;;;5098771;27;46111;-76
2022/08/05 14:30:46;;;;;;;;;0.00;0.00;;;;;;;;5098892;27;45200;-75
2022/08/05 14:33:11;;;;;;;;;0.00;0.00;;;;;;;;5098968;27;45170;-74
2022/08/05 14:35:36;;;;;;;;;3.00;3.00;;;;;;;;5099091;27;45346;-74
2022/08/05 14:38:01;;;;;;;;;1.33;1.00;;;;;;;;5098386;27;45489;-76
2022/08/05 14:40:28;;;;;;;;;1.00;1.00;;;;;;;;5098628;27;45389;-76
2022/08/05 14:42:53;;;;;;;;;1.00;1.00;;;;;;;;5098914;27;45328;-74
2022/08/05 14:45:19;;;;;;;;;1.00;1.00;;;;;;;;5098729;27;45414;-75